Time;durP1;ratioP1;P1;durP2;ratioP2;P2;SDS_P1;SDS_P2;PMS_P1;PMS_P2;Temp;Humidity;BMP_temperature;BMP_pressure;BME280_temperature;BME280_humidity;BME280_pressure;Samples;Min_cycle;Max_cycle;Signal;HPM_P1;HPM_P2
2023/07/22 00:01:30;;;;;;;3.77;1.00;;;16.30;99.90;;;;;;5074118;28;20519;-69
2023/07/22 00:03:57;;;;;;;2.00;1.10;;;16.30;99.90;;;;;;5073930;28;20625;-69
2023/07/22 00:06:26;;;;;;;5.90;1.57;;;16.30;99.90;;;;;;5073810;28;20588;-69
2023/07/22 00:08:54;;;;;;;1.40;0.80;;;16.40;99.90;;;;;;5073676;28;20550;-68
2023/07/22 00:11:21;;;;;;;1.33;0.80;;;16.70;99.90;;;;;;5073798;28;20207;-68
2023/07/22 00:13:49;;;;;;;2.53;1.10;;;16.70;99.90;;;;;;5073760;28;20539;-68
2023/07/22 00:16:17;;;;;;;3.37;1.17;;;16.80;99.90;;;;;;5073389;28;20321;-68
2023/07/22 00:18:45;;;;;;;1.20;1.00;;;16.70;99.90;;;;;;5072149;28;20176;-68
2023/07/22 00:21:13;;;;;;;2.10;0.90;;;17.10;99.90;;;;;;5072344;28;20227;-70
2023/07/22 00:23:41;;;;;;;2.40;1.03;;;17.40;99.90;;;;;;5073507;28;20176;-68
2023/07/22 00:26:09;;;;;;;2.03;1.13;;;17.50;99.90;;;;;;5073432;28;20181;-67
2023/07/22 00:28:37;;;;;;;2.50;0.90;;;17.60;99.90;;;;;;5073309;28;20168;-69
2023/07/22 00:31:05;;;;;;;2.87;1.00;;;17.50;99.90;;;;;;5073330;28;20581;-68
2023/07/22 00:33:32;;;;;;;2.63;0.90;;;17.70;99.90;;;;;;5073368;28;20200;-68
2023/07/22 00:36:00;;;;;;;1.83;1.07;;;17.70;99.90;;;;;;5073376;28;20184;-68
2023/07/22 00:38:28;;;;;;;2.57;1.20;;;17.90;99.90;;;;;;5073371;28;20222;-68
2023/07/22 00:40:55;;;;;;;3.73;1.33;;;17.80;99.90;;;;;;5073167;28;20176;-68
2023/07/22 00:43:25;;;;;;;2.63;1.10;;;18.00;99.90;;;;;;5073128;28;20173;-68
2023/07/22 00:45:53;;;;;;;4.30;1.07;;;18.00;99.90;;;;;;5073165;28;20182;-69
2023/07/22 00:48:22;;;;;;;2.50;1.03;;;17.90;99.90;;;;;;5073174;28;20172;-69
2023/07/22 00:50:50;;;;;;;2.23;1.00;;;17.90;99.90;;;;;;5073007;28;20206;-67
2023/07/22 00:53:18;;;;;;;1.93;1.10;;;18.00;99.90;;;;;;5073280;28;20690;-68
2023/07/22 00:55:46;;;;;;;6.13;1.07;;;18.20;99.90;;;;;;5072994;28;20168;-68
2023/07/22 00:58:14;;;;;;;3.80;0.83;;;18.30;99.90;;;;;;5073044;28;20175;-68
2023/07/22 01:00:42;;;;;;;3.73;1.10;;;18.50;99.90;;;;;;5073008;28;20178;-66
2023/07/22 01:03:09;;;;;;;1.43;0.80;;;18.40;98.80;;;;;;5073049;28;20173;-67
2023/07/22 01:05:38;;;;;;;3.67;0.93;;;18.10;99.90;;;;;;5071806;28;20180;-67
2023/07/22 01:08:07;;;;;;;3.63;0.80;;;18.30;99.90;;;;;;5072981;28;20166;-67
2023/07/22 01:10:34;;;;;;;2.10;0.70;;;18.70;99.90;;;;;;5073817;28;20551;-67
2023/07/22 01:13:02;;;;;;;2.50;0.90;;;18.90;97.40;;;;;;5075546;28;20174;-68
2023/07/22 01:15:30;;;;;;;3.03;0.80;;;18.80;98.90;;;;;;5077058;28;20697;-67
2023/07/22 01:18:01;;;;;;;2.20;1.00;;;19.00;97.60;;;;;;5078035;28;20230;-67
2023/07/22 01:20:30;;;;;;;4.27;0.97;;;18.90;96.70;;;;;;5076840;28;20195;-68
2023/07/22 01:22:58;;;;;;;1.70;0.70;;;19.30;96.60;;;;;;5076967;28;20164;-68
2023/07/22 01:25:26;;;;;;;4.03;1.00;;;19.70;97.60;;;;;;5076873;28;20636;-68
2023/07/22 01:27:54;;;;;;;5.10;1.20;;;19.30;97.60;;;;;;5076859;28;20207;-68
2023/07/22 01:30:22;;;;;;;2.67;1.00;;;19.20;96.00;;;;;;5076777;28;20175;-68
2023/07/22 01:32:50;;;;;;;1.60;0.90;;;19.40;94.80;;;;;;5076949;28;20258;-68
2023/07/22 01:35:19;;;;;;;2.53;0.70;;;19.40;95.10;;;;;;5076876;28;20176;-69
2023/07/22 01:37:46;;;;;;;2.40;0.80;;;19.40;95.00;;;;;;5076556;28;20233;-68
2023/07/22 01:40:15;;;;;;;5.53;1.00;;;19.60;94.40;;;;;;5076484;28;20176;-68
2023/07/22 01:42:43;;;;;;;2.73;0.97;;;19.70;93.40;;;;;;5076673;28;20263;-68
2023/07/22 01:45:11;;;;;;;4.60;1.00;;;20.10;94.40;;;;;;5076316;28;20531;-68
2023/07/22 01:47:42;;;;;;;4.43;0.90;;;19.90;92.30;;;;;;5076142;28;20172;-67
2023/07/22 01:50:10;;;;;;;1.83;0.90;;;20.00;93.40;;;;;;5076314;28;20172;-67
2023/07/22 01:52:38;;;;;;;2.70;0.90;;;20.50;91.00;;;;;;5076234;28;20534;-69
2023/07/22 01:55:10;;;;;;;4.13;0.87;;;21.00;91.10;;;;;;5076178;28;20171;-69
2023/07/22 01:57:39;;;;;;;1.47;0.77;;;21.00;88.10;;;;;;5076221;28;20653;-68
2023/07/22 02:00:10;;;;;;;3.17;0.90;;;20.60;89.90;;;;;;5075859;28;20285;-69
2023/07/22 02:02:39;;;;;;;1.83;0.70;;;20.70;92.60;;;;;;5076088;28;20168;-68
2023/07/22 02:05:07;;;;;;;2.20;0.70;;;21.30;85.60;;;;;;5075932;28;20179;-69
2023/07/22 02:07:35;;;;;;;3.30;0.70;;;21.40;83.50;;;;;;5076026;28;20312;-68
2023/07/22 02:10:03;;;;;;;4.30;0.97;;;21.20;85.80;;;;;;5075835;28;20229;-68
2023/07/22 02:12:30;;;;;;;5.40;1.10;;;21.50;83.80;;;;;;5075945;28;20295;-68
2023/07/22 02:14:59;;;;;;;4.83;1.00;;;22.10;84.10;;;;;;5075566;28;20180;-68
2023/07/22 02:17:26;;;;;;;2.63;1.00;;;21.90;82.50;;;;;;5075625;28;20259;-68
2023/07/22 02:19:54;;;;;;;2.20;0.90;;;22.20;83.30;;;;;;5075659;28;20264;-69
2023/07/22 02:22:22;;;;;;;2.00;0.70;;;21.70;71.90;;;;;;5075500;28;20195;-69
2023/07/22 02:24:50;;;;;;;2.83;0.90;;;21.70;82.90;;;;;;5075676;28;20350;-68
2023/07/22 02:27:18;;;;;;;1.87;0.80;;;22.20;82.20;;;;;;5075613;28;20254;-69
2023/07/22 02:29:45;;;;;;;2.00;0.90;;;22.00;71.50;;;;;;5075543;28;20179;-68
2023/07/22 02:32:13;;;;;;;2.83;0.97;;;21.70;74.60;;;;;;5075501;28;20310;-67
2023/07/22 02:34:41;;;;;;;5.40;1.10;;;21.70;72.50;;;;;;5075484;28;20545;-67
2023/07/22 02:37:09;;;;;;;3.80;1.07;;;21.50;73.70;;;;;;5075511;28;20262;-68
2023/07/22 02:39:37;;;;;;;7.27;0.97;;;21.90;73.80;;;;;;5075386;28;20227;-70
2023/07/22 02:42:05;;;;;;;2.30;0.90;;;22.20;76.60;;;;;;5075169;28;20192;-67
2023/07/22 02:44:32;;;;;;;2.23;0.70;;;22.40;66.70;;;;;;5074106;28;20540;-68
2023/07/22 02:47:00;;;;;;;1.53;0.70;;;21.80;72.70;;;;;;5075082;28;20183;-68
2023/07/22 02:49:28;;;;;;;5.57;1.30;;;21.90;67.40;;;;;;5074209;28;20182;-69
2023/07/22 02:51:56;;;;;;;1.93;0.77;;;21.50;63.30;;;;;;5076662;28;20219;-68
2023/07/22 02:54:24;;;;;;;2.03;0.80;;;21.70;66.60;;;;;;5074831;28;20274;-69
2023/07/22 02:56:51;;;;;;;1.57;0.97;;;21.60;69.00;;;;;;5074323;28;20191;-68
2023/07/22 02:59:19;;;;;;;2.50;0.80;;;22.00;69.80;;;;;;5071092;28;20286;-69
2023/07/22 03:01:47;;;;;;;5.10;1.07;;;22.30;64.10;;;;;;5037057;28;20239;-69
2023/07/22 03:04:15;;;;;;;4.97;1.20;;;22.40;61.30;;;;;;5043107;28;20191;-70
2023/07/22 03:41:27;;;;;;;3.03;0.80;;;19.50;52.70;;;;;;5059622;28;20241;-71
2023/07/22 03:43:55;;;;;;;2.50;0.80;;;19.00;58.10;;;;;;5093561;28;20175;-71
2023/07/22 03:46:23;;;;;;;2.63;0.90;;;18.70;66.60;;;;;;5093204;28;20172;-71
2023/07/22 03:48:51;;;;;;;2.53;1.13;;;18.70;74.80;;;;;;5093024;28;20183;-70
2023/07/22 03:51:19;;;;;;;2.00;0.93;;;19.10;75.00;;;;;;5092930;28;20273;-71
2023/07/22 03:53:46;;;;;;;2.07;0.80;;;19.30;75.30;;;;;;5093794;28;20185;-71
2023/07/22 03:56:14;;;;;;;2.27;0.73;;;19.50;70.90;;;;;;5092814;28;20176;-72
2023/07/22 03:58:42;;;;;;;4.63;1.00;;;19.70;71.20;;;;;;5092631;28;20207;-71
2023/07/22 04:01:12;;;;;;;3.37;0.90;;;20.50;66.80;;;;;;5092498;28;20703;-72
2023/07/22 04:03:40;;;;;;;3.17;1.10;;;21.10;60.60;;;;;;5092395;28;20209;-72
2023/07/22 04:06:08;;;;;;;1.10;0.80;;;21.80;57.70;;;;;;5092814;28;20187;-72
2023/07/22 04:08:35;;;;;;;1.53;0.70;;;22.40;56.00;;;;;;5092402;28;20179;-71
2023/07/22 04:11:03;;;;;;;0.97;0.67;;;22.30;51.40;;;;;;5092601;28;20220;-71
2023/07/22 04:13:31;;;;;;;3.13;0.73;;;21.50;56.40;;;;;;5092382;28;20186;-71
2023/07/22 04:15:59;;;;;;;1.80;0.73;;;21.10;64.70;;;;;;5092250;28;20203;-71
2023/07/22 04:18:33;;;;;;;2.53;0.70;;;21.00;70.20;;;;;;5092228;28;20551;-72
2023/07/22 04:21:01;;;;;;;3.43;0.87;;;20.90;73.00;;;;;;5092054;28;20214;-72
2023/07/22 04:23:33;;;;;;;2.50;0.80;;;20.40;71.90;;;;;;5091856;28;20213;-71
2023/07/22 04:26:07;;;;;;;1.17;0.70;;;19.80;75.10;;;;;;5092367;28;20611;-72
2023/07/22 04:28:35;;;;;;;0.73;0.60;;;19.40;85.00;;;;;;5092027;28;20167;-71
2023/07/22 04:31:04;;;;;;;2.53;0.90;;;19.20;90.10;;;;;;5092139;28;20710;-71
2023/07/22 04:33:31;;;;;;;1.60;0.90;;;19.20;92.00;;;;;;5091864;28;20187;-71
2023/07/22 04:36:00;;;;;;;4.50;1.00;;;19.10;91.60;;;;;;5092266;28;20638;-71
2023/07/22 04:38:28;;;;;;;3.50;1.40;;;19.00;92.80;;;;;;5091945;28;20180;-71
2023/07/22 04:40:56;;;;;;;7.03;1.00;;;19.10;95.10;;;;;;5073365;28;20634;-71
2023/07/22 04:43:24;;;;;;;1.83;1.00;;;18.90;94.50;;;;;;5091712;28;20289;-71
2023/07/22 04:45:52;;;;;;;1.07;0.70;;;18.90;96.00;;;;;;5091910;28;20184;-71
2023/07/22 04:48:24;;;;;;;0.90;0.70;;;18.80;98.10;;;;;;5091879;28;20671;-71
2023/07/22 04:50:52;;;;;;;1.80;0.80;;;18.80;99.00;;;;;;5091825;28;20183;-72
2023/07/22 04:53:22;;;;;;;1.70;1.10;;;18.90;98.20;;;;;;5091808;28;20181;-71
2023/07/22 04:55:49;;;;;;;5.17;1.20;;;19.10;96.40;;;;;;5091720;28;20189;-71
2023/07/22 04:58:17;;;;;;;1.37;0.80;;;19.20;98.30;;;;;;5091680;28;20211;-72
2023/07/22 05:00:45;;;;;;;4.13;1.00;;;19.30;95.10;;;;;;5091466;28;20196;-70
2023/07/22 05:03:13;;;;;;;3.03;1.00;;;19.20;94.70;;;;;;5091786;28;20182;-72
2023/07/22 05:05:42;;;;;;;4.00;1.27;;;19.50;97.50;;;;;;5073339;28;20544;-71
2023/07/22 05:08:09;;;;;;;2.40;1.07;;;19.60;97.30;;;;;;5091409;28;20653;-71
2023/07/22 05:10:41;;;;;;;3.40;1.03;;;19.40;97.90;;;;;;5091501;28;20240;-71
2023/07/22 05:13:08;;;;;;;1.57;0.90;;;19.40;97.30;;;;;;5091560;28;20167;-71
2023/07/22 05:15:36;;;;;;;4.57;1.20;;;19.80;97.90;;;;;;5091449;28;20173;-71
2023/07/22 05:18:04;;;;;;;3.20;1.20;;;19.90;99.00;;;;;;5091517;28;20186;-71
2023/07/22 05:20:31;;;;;;;1.67;1.00;;;20.30;98.70;;;;;;5073120;28;20183;-71
2023/07/22 05:22:59;;;;;;;2.67;1.20;;;20.30;98.70;;;;;;5091365;28;20181;-72
2023/07/22 05:25:27;;;;;;;1.50;1.20;;;20.20;98.90;;;;;;5091333;28;20175;-71
2023/07/22 05:27:55;;;;;;;3.03;1.80;;;20.10;99.90;;;;;;5091517;28;20171;-71
2023/07/22 05:30:23;;;;;;;6.73;1.37;;;20.10;99.90;;;;;;5091265;28;20182;-71
2023/07/22 05:32:53;;;;;;;3.70;1.53;;;19.80;99.90;;;;;;5091900;28;20650;-70
2023/07/22 05:35:21;;;;;;;2.80;1.20;;;19.50;99.90;;;;;;5091060;28;20284;-71
2023/07/22 05:37:49;;;;;;;4.63;1.20;;;19.40;99.90;;;;;;5091321;28;20191;-71
2023/07/22 05:40:17;;;;;;;1.30;1.00;;;19.00;99.90;;;;;;5091271;28;20167;-71
2023/07/22 05:42:45;;;;;;;4.30;1.47;;;18.60;99.90;;;;;;5091132;28;20222;-71
2023/07/22 05:45:15;;;;;;;1.93;1.23;;;18.30;99.90;;;;;;5091110;28;20267;-70
2023/07/22 05:47:42;;;;;;;7.27;1.57;;;18.00;99.90;;;;;;5091144;28;20224;-71
2023/07/22 05:50:10;;;;;;;3.00;1.30;;;17.60;99.90;;;;;;5091184;28;20178;-70
2023/07/22 05:52:38;;;;;;;2.97;1.23;;;17.50;99.90;;;;;;5091169;28;20175;-72
2023/07/22 05:55:06;;;;;;;2.93;1.37;;;17.20;99.90;;;;;;5091230;28;20224;-72
2023/07/22 05:57:34;;;;;;;2.73;1.33;;;17.00;99.90;;;;;;5091177;28;20181;-72
2023/07/22 06:00:03;;;;;;;2.27;1.40;;;16.90;99.90;;;;;;5094708;28;20190;-72
2023/07/22 06:02:30;;;;;;;2.00;1.43;;;16.80;99.90;;;;;;5094512;28;20237;-72
2023/07/22 06:04:58;;;;;;;3.40;1.90;;;16.70;99.90;;;;;;5094979;28;20167;-72
2023/07/22 06:07:26;;;;;;;2.70;1.40;;;16.70;99.90;;;;;;5094497;28;20550;-72
2023/07/22 06:09:54;;;;;;;3.47;1.60;;;16.50;99.90;;;;;;5094903;28;20175;-72
2023/07/22 06:12:22;;;;;;;2.60;1.60;;;16.40;99.90;;;;;;5094771;28;20523;-71
2023/07/22 06:14:50;;;;;;;6.67;1.67;;;16.30;99.90;;;;;;5094727;28;20193;-72
2023/07/22 06:17:18;;;;;;;3.23;1.57;;;16.20;99.90;;;;;;5094514;28;20270;-72
2023/07/22 06:19:46;;;;;;;6.37;2.07;;;16.20;99.90;;;;;;5086378;28;20182;-71
2023/07/22 06:22:13;;;;;;;5.77;1.87;;;16.10;99.90;;;;;;5084825;28;20576;-71
2023/07/22 06:24:41;;;;;;;2.90;1.63;;;16.00;99.90;;;;;;5083762;28;20241;-72
2023/07/22 06:27:09;;;;;;;5.23;1.80;;;15.90;99.90;;;;;;5084103;28;20253;-71
2023/07/22 06:29:37;;;;;;;3.50;1.70;;;15.80;99.90;;;;;;5084386;28;20225;-71
2023/07/22 06:32:05;;;;;;;6.60;1.93;;;15.60;99.90;;;;;;5082552;28;20179;-72
2023/07/22 06:34:32;;;;;;;2.83;1.60;;;15.50;99.90;;;;;;5083798;28;20175;-71
2023/07/22 06:37:00;;;;;;;3.80;1.50;;;15.40;99.90;;;;;;5084649;28;20538;-72
2023/07/22 06:39:28;;;;;;;5.93;1.47;;;15.30;99.90;;;;;;5082883;28;20180;-70
2023/07/22 06:41:56;;;;;;;4.73;1.77;;;15.20;99.90;;;;;;5082667;28;20578;-70
2023/07/22 06:44:23;;;;;;;4.83;1.83;;;15.10;99.90;;;;;;5094080;28;20205;-71
2023/07/22 06:46:51;;;;;;;2.53;1.50;;;15.00;99.90;;;;;;5094781;28;20186;-71
2023/07/22 06:49:19;;;;;;;5.73;1.90;;;14.90;99.90;;;;;;5076076;28;20179;-71
2023/07/22 06:51:47;;;;;;;4.50;1.70;;;14.80;99.90;;;;;;5093639;28;20177;-71
2023/07/22 06:54:15;;;;;;;1.87;1.50;;;14.70;99.90;;;;;;5094064;28;20248;-71
2023/07/22 06:56:43;;;;;;;2.47;1.40;;;14.60;99.90;;;;;;5094401;28;20178;-70
2023/07/22 06:59:10;;;;;;;6.10;1.67;;;14.60;99.90;;;;;;5093896;28;20175;-71
2023/07/22 07:01:38;;;;;;;2.50;1.73;;;14.50;99.90;;;;;;5093749;28;20362;-71
2023/07/22 07:04:06;;;;;;;4.67;1.90;;;14.40;99.90;;;;;;5093769;28;20641;-71
2023/07/22 07:06:34;;;;;;;6.80;2.13;;;14.30;99.90;;;;;;5093726;28;20198;-70
2023/07/22 07:09:02;;;;;;;3.20;1.90;;;14.20;99.90;;;;;;5092571;28;20187;-70
2023/07/22 07:11:30;;;;;;;3.10;1.90;;;14.10;99.90;;;;;;5092961;28;20643;-71
2023/07/22 07:13:58;;;;;;;2.57;1.97;;;14.10;99.90;;;;;;5093512;28;20183;-71
2023/07/22 07:16:29;;;;;;;6.03;2.27;;;14.00;99.90;;;;;;5093559;28;20190;-70
2023/07/22 07:18:57;;;;;;;6.70;2.27;;;13.90;99.90;;;;;;5093354;28;20174;-70
2023/07/22 07:21:25;;;;;;;3.60;2.10;;;13.80;99.90;;;;;;5093781;28;20302;-71
2023/07/22 07:23:54;;;;;;;3.73;2.10;;;13.70;99.90;;;;;;5093785;28;20205;-70
2023/07/22 07:26:22;;;;;;;4.80;1.90;;;13.60;99.90;;;;;;5094988;28;20199;-70
2023/07/22 07:28:51;;;;;;;4.00;2.40;;;13.60;99.90;;;;;;5094581;28;20185;-71
2023/07/22 07:31:19;;;;;;;6.73;2.30;;;13.40;99.90;;;;;;5094767;28;20206;-71
2023/07/22 07:33:47;;;;;;;4.20;2.03;;;13.40;99.90;;;;;;5094613;28;20182;-70
2023/07/22 07:36:14;;;;;;;4.03;2.10;;;13.20;99.90;;;;;;5094763;28;20179;-70
2023/07/22 07:38:42;;;;;;;3.07;2.17;;;13.10;99.90;;;;;;5094628;28;20176;-69
2023/07/22 07:41:12;;;;;;;2.73;1.97;;;13.00;99.90;;;;;;5094340;28;20309;-69
2023/07/22 07:43:41;;;;;;;4.23;2.60;;;12.90;99.90;;;;;;5094506;28;20642;-69
2023/07/22 07:46:23;;;;;;;5.70;2.33;;;12.90;99.90;;;;;;5094648;28;20240;-70
2023/07/22 07:48:55;;;;;;;5.67;2.47;;;12.80;99.90;;;;;;5094398;28;20190;-71
2023/07/22 07:51:26;;;;;;;5.47;2.53;;;12.80;99.90;;;;;;5095027;28;20282;-72
2023/07/22 07:53:55;;;;;;;5.90;2.73;;;12.70;99.90;;;;;;5076395;28;20235;-71
2023/07/22 07:56:23;;;;;;;6.80;2.63;;;12.60;99.90;;;;;;5094413;28;20261;-71
2023/07/22 07:58:52;;;;;;;8.23;2.83;;;12.50;99.90;;;;;;5094437;28;20643;-72
2023/07/22 08:01:21;;;;;;;10.47;4.67;;;12.40;99.90;;;;;;5094042;28;20756;-71
2023/07/22 08:03:49;;;;;;;8.07;3.80;;;12.30;99.90;;;;;;5094316;28;20176;-71
2023/07/22 08:06:17;;;;;;;6.63;3.50;;;12.30;99.90;;;;;;5094267;28;20181;-71
2023/07/22 08:08:44;;;;;;;4.00;3.20;;;12.20;99.90;;;;;;5094194;28;20257;-71
2023/07/22 08:11:14;;;;;;;9.10;3.33;;;12.10;99.90;;;;;;5094184;28;20170;-73
2023/07/22 08:13:43;;;;;;;12.33;4.00;;;12.10;99.90;;;;;;5094190;28;20186;-72
2023/07/22 08:16:13;;;;;;;8.27;3.00;;;11.90;99.90;;;;;;5094186;28;20170;-72
2023/07/22 08:18:41;;;;;;;5.23;2.90;;;11.80;99.90;;;;;;5093968;28;20169;-71
2023/07/22 08:21:09;;;;;;;5.97;2.97;;;11.80;99.90;;;;;;5093522;28;20209;-71
2023/07/22 08:23:37;;;;;;;5.33;2.93;;;11.70;99.90;;;;;;5094070;28;20548;-70
2023/07/22 08:26:06;;;;;;;9.43;2.80;;;11.60;99.90;;;;;;5094069;28;20203;-71
2023/07/22 08:28:34;;;;;;;7.20;2.97;;;11.50;99.90;;;;;;5093599;28;20185;-71
2023/07/22 08:31:02;;;;;;;4.37;2.60;;;11.50;99.90;;;;;;5073103;28;20484;-72
2023/07/22 08:33:30;;;;;;;6.30;3.30;;;11.40;99.90;;;;;;5091702;28;20184;-70
2023/07/22 08:35:57;;;;;;;5.37;3.17;;;11.30;99.90;;;;;;5092108;28;20204;-71
2023/07/22 08:38:25;;;;;;;6.83;3.50;;;11.30;99.90;;;;;;5092145;28;20192;-71
2023/07/22 08:40:53;;;;;;;5.80;3.07;;;11.20;99.90;;;;;;5091923;28;20213;-71
2023/07/22 08:43:22;;;;;;;4.43;2.90;;;11.20;99.90;;;;;;5091890;28;20233;-71
2023/07/22 08:45:52;;;;;;;6.87;3.40;;;11.20;99.90;;;;;;5091928;28;20193;-71
2023/07/22 08:48:21;;;;;;;10.87;3.40;;;11.10;99.90;;;;;;5091720;28;20174;-72
2023/07/22 08:51:04;;;;;;;6.00;3.07;;;11.00;99.90;;;;;;5091914;28;20602;-72
2023/07/22 08:53:36;;;;;;;7.27;3.57;;;10.90;99.90;;;;;;5091805;28;20244;-72
2023/07/22 08:56:04;;;;;;;6.40;3.47;;;10.80;99.90;;;;;;5073756;28;20184;-72
2023/07/22 08:58:32;;;;;;;7.77;4.30;;;10.80;99.90;;;;;;5091875;28;20176;-72
2023/07/22 09:01:00;;;;;;;8.77;4.90;;;10.70;99.90;;;;;;5091527;28;20726;-72
2023/07/22 09:03:28;;;;;;;11.57;5.17;;;10.70;99.90;;;;;;5091752;28;20178;-72
2023/07/22 09:05:57;;;;;;;10.17;5.90;;;10.60;99.90;;;;;;5091840;28;20220;-71
2023/07/22 09:08:25;;;;;;;10.87;7.00;;;10.60;99.90;;;;;;5091738;28;20173;-71
2023/07/22 09:10:53;;;;;;;15.13;7.63;;;10.70;99.90;;;;;;5091597;28;20553;-71
2023/07/22 09:13:23;;;;;;;18.40;12.30;;;10.60;99.90;;;;;;5073676;28;20179;-71
2023/07/22 09:15:52;;;;;;;22.00;13.57;;;10.60;99.90;;;;;;5091557;28;20181;-71
2023/07/22 09:18:20;;;;;;;18.50;11.03;;;10.60;99.90;;;;;;5073473;28;20754;-71
2023/07/22 09:20:48;;;;;;;21.50;10.10;;;10.50;99.90;;;;;;5091199;28;20236;-72
2023/07/22 09:23:16;;;;;;;14.20;9.33;;;10.40;99.90;;;;;;5091777;28;20212;-71
2023/07/22 09:25:44;;;;;;;14.77;9.57;;;10.40;99.90;;;;;;5091542;28;20167;-72
2023/07/22 09:28:12;;;;;;;15.00;10.20;;;10.30;99.90;;;;;;5091528;28;20181;-71
2023/07/22 09:30:40;;;;;;;16.90;9.87;;;10.30;99.90;;;;;;5091412;28;20179;-72
2023/07/22 09:33:22;;;;;;;18.00;10.33;;;10.30;99.90;;;;;;5074395;28;20579;-71
2023/07/22 09:35:50;;;;;;;17.17;11.37;;;10.20;99.90;;;;;;5095299;28;20184;-72
2023/07/22 09:38:27;;;;;;;19.57;11.90;;;10.10;99.90;;;;;;5095538;28;20184;-72
2023/07/22 09:40:55;;;;;;;17.63;10.53;;;10.10;99.90;;;;;;5095132;28;20284;-72
2023/07/22 09:43:24;;;;;;;18.00;10.60;;;10.10;99.90;;;;;;5095265;28;20229;-72
2023/07/22 09:49:16;;;;;;;19.73;10.40;;;10.00;99.90;;;;;;5094520;28;20656;-73
2023/07/22 09:51:44;;;;;;;20.27;11.30;;;10.00;99.90;;;;;;5095290;28;20198;-72
2023/07/22 09:54:11;;;;;;;18.43;11.30;;;10.00;99.90;;;;;;5095004;28;20267;-71
2023/07/22 09:56:49;;;;;;;21.10;11.10;;;9.80;99.90;;;;;;5095464;28;20208;-72
2023/07/22 09:59:20;;;;;;;19.53;10.77;;;9.80;99.90;;;;;;5095209;28;20178;-72
2023/07/22 10:01:48;;;;;;;18.13;10.93;;;9.70;99.90;;;;;;5095569;28;20220;-73
2023/07/22 10:04:18;;;;;;;17.17;11.17;;;9.70;99.90;;;;;;5095642;28;20209;-72
2023/07/22 10:06:46;;;;;;;17.23;10.60;;;9.70;99.90;;;;;;5094850;28;20212;-73
2023/07/22 10:09:17;;;;;;;19.50;10.50;;;9.80;99.90;;;;;;5094797;28;20186;-73
2023/07/22 10:11:45;;;;;;;18.67;10.23;;;9.70;99.90;;;;;;5095062;28;20180;-72
2023/07/22 10:14:14;;;;;;;17.57;10.57;;;9.70;99.90;;;;;;5095242;28;20176;-72
2023/07/22 10:16:42;;;;;;;19.10;10.53;;;9.60;99.90;;;;;;5095398;28;20184;-72
2023/07/22 10:19:11;;;;;;;17.10;11.67;;;9.50;99.90;;;;;;5096260;28;20203;-71
2023/07/22 10:21:40;;;;;;;20.43;11.70;;;9.50;99.90;;;;;;5087360;28;20213;-71
2023/07/22 10:24:09;;;;;;;19.40;11.23;;;9.40;99.90;;;;;;5094799;28;20193;-71
2023/07/22 10:26:37;;;;;;;21.20;11.10;;;9.40;99.90;;;;;;5093956;28;20169;-71
2023/07/22 10:29:05;;;;;;;18.37;10.33;;;9.30;99.90;;;;;;5092428;28;20212;-71
2023/07/22 10:31:33;;;;;;;18.43;10.33;;;9.30;99.90;;;;;;5092491;28;20211;-71
2023/07/22 10:34:02;;;;;;;16.83;10.17;;;9.30;99.90;;;;;;5094323;28;20212;-71
2023/07/22 10:36:31;;;;;;;22.63;10.50;;;9.30;99.90;;;;;;5094201;28;20177;-72
2023/07/22 10:38:59;;;;;;;17.03;10.97;;;9.40;99.90;;;;;;5087509;28;20183;-71
2023/07/22 10:41:27;;;;;;;15.57;9.90;;;9.30;99.90;;;;;;5093665;28;20234;-71
2023/07/22 10:44:00;;;;;;;;;;;9.30;99.90;;;;;;5093724;28;20119;-71
2023/07/22 10:46:33;;;;;;;;;;;9.20;99.90;;;;;;5093807;28;19914;-70
2023/07/22 10:49:16;;;;;;;;;;;9.20;99.90;;;;;;5093603;28;20379;-71
2023/07/22 10:51:50;;;;;;;;;;;9.10;99.90;;;;;;5093562;28;19957;-70
2023/07/22 10:54:35;;;;;;;;;;;9.20;99.90;;;;;;5093720;28;24088;-71
2023/07/22 10:57:17;;;;;;;;;;;9.10;99.90;;;;;;5093330;28;19912;-71
2023/07/22 10:59:51;;;;;;;;;;;9.10;99.90;;;;;;5094032;28;19904;-70
2023/07/22 11:02:27;;;;;;;;;;;9.10;99.90;;;;;;5093511;28;25162;-72
2023/07/22 11:04:59;;;;;;;;;;;8.90;99.90;;;;;;5075884;28;19950;-71
2023/07/22 11:07:32;;;;;;;;;;;8.90;99.90;;;;;;5093188;28;24064;-71
2023/07/22 11:10:11;;;;;;;;;;;8.90;99.90;;;;;;5093600;28;19910;-71
2023/07/22 11:12:39;;;;;;;;;;;8.90;99.90;;;;;;5093365;28;19915;-70
2023/07/22 11:15:07;;;;;;;;;;;8.80;99.90;;;;;;5093555;28;19918;-70
2023/07/22 11:17:34;;;;;;;;;;;8.80;99.90;;;;;;5093088;28;24094;-70
2023/07/22 11:20:02;;;;;;;;;;;8.80;99.90;;;;;;5093272;28;19911;-71
2023/07/22 11:22:31;;;;;;;;;;;8.70;99.90;;;;;;5093127;28;19912;-70
2023/07/22 11:25:00;;;;;;;;;;;8.70;99.90;;;;;;5093271;28;19911;-70
2023/07/22 11:27:27;;;;;;;;;;;8.70;99.90;;;;;;5093185;28;19904;-70
2023/07/22 11:29:53;;;;;;;;;;;8.70;99.90;;;;;;5092913;28;19920;-70
2023/07/22 11:32:22;;;;;;;;;;;8.60;99.90;;;;;;5093103;28;20348;-71
2023/07/22 11:34:48;;;;;;;;;;;8.50;99.90;;;;;;5092799;28;25130;-71
2023/07/22 11:37:16;;;;;;;;;;;8.50;99.90;;;;;;5093167;28;19938;-70
2023/07/22 11:39:44;;;;;;;;;;;8.50;99.90;;;;;;5092491;28;20041;-70
2023/07/22 11:42:11;;;;;;;;;;;8.40;99.90;;;;;;5092630;28;19919;-70
2023/07/22 11:44:38;;;;;;;;;;;8.50;99.90;;;;;;5075582;28;19959;-71
2023/07/22 11:47:09;;;;;;;;;;;8.40;99.90;;;;;;5072335;28;20365;-71
2023/07/22 11:49:37;;;;;;;;;;;8.40;99.90;;;;;;5072527;28;19949;-70
2023/07/22 11:52:05;;;;;;;;;;;8.40;99.90;;;;;;5072804;28;19931;-70
2023/07/22 11:54:33;;;;;;;;;;;8.30;99.90;;;;;;5072168;28;24073;-70
2023/07/22 11:57:15;;;;;;;;;;;8.30;99.90;;;;;;5071555;28;19912;-70
2023/07/22 11:59:52;;;;;;;;;;;8.30;99.90;;;;;;5072244;28;19905;-70
2023/07/22 12:02:19;;;;;;;;;;;8.30;99.90;;;;;;5072240;28;19957;-72
2023/07/22 12:05:02;;;;;;;;;;;8.20;99.90;;;;;;5072129;28;20349;-71
2023/07/22 12:07:29;;;;;;;;;;;8.20;99.90;;;;;;5073080;28;19912;-71
2023/07/22 12:10:00;;;;;;;;;;;8.20;99.90;;;;;;5091069;28;19947;-72
2023/07/22 12:12:45;;;;;;;;;;;8.20;99.90;;;;;;5092337;28;20469;-71
2023/07/22 12:15:23;;;;;;;;;;;8.20;99.90;;;;;;5074163;28;19912;-72
2023/07/22 12:18:03;;;;;;;;;;;8.20;99.90;;;;;;5091835;28;19908;-71
2023/07/22 12:20:31;;;;;;;;;;;8.10;99.90;;;;;;5091779;28;19912;-71
2023/07/22 12:22:59;;;;;;;20.03;11.87;;;8.10;99.90;;;;;;5091430;28;20146;-72
2023/07/22 12:25:27;;;;;;;22.97;12.10;;;8.00;99.90;;;;;;5092007;28;20194;-71
2023/07/22 12:27:55;;;;;;;26.47;13.87;;;8.00;99.90;;;;;;5091972;28;20168;-71
2023/07/22 12:30:23;;;;;;;21.90;13.57;;;7.90;99.90;;;;;;5091484;28;20237;-71
2023/07/22 12:32:51;;;;;;;21.33;12.80;;;7.90;99.90;;;;;;5091532;28;20207;-71
2023/07/22 12:35:19;;;;;;;23.07;12.27;;;7.90;99.90;;;;;;5092020;28;20285;-71
2023/07/22 12:37:47;;;;;;;22.23;12.93;;;7.80;99.90;;;;;;5091714;28;20232;-71
2023/07/22 12:40:15;;;;;;;19.60;11.77;;;7.80;99.90;;;;;;5091700;28;20183;-73
2023/07/22 12:42:43;;;;;;;24.60;13.20;;;7.80;99.90;;;;;;5092269;28;20259;-72
2023/07/22 12:45:11;;;;;;;18.63;11.70;;;7.80;99.90;;;;;;5093092;28;20180;-73
2023/07/22 12:47:39;;;;;;;24.33;13.23;;;7.80;99.90;;;;;;5093086;28;20178;-73
2023/07/22 12:50:10;;;;;;;19.50;12.13;;;7.70;99.90;;;;;;5091496;28;20671;-71
2023/07/22 12:52:38;;;;;;;20.13;12.13;;;7.70;99.90;;;;;;5092577;28;20208;-70
2023/07/22 12:55:07;;;;;;;20.40;11.27;;;7.70;99.90;;;;;;5093065;28;20251;-71
2023/07/22 12:57:37;;;;;;;19.73;12.07;;;7.60;99.90;;;;;;5092849;28;20192;-70
2023/07/22 13:00:09;;;;;;;20.93;11.50;;;7.50;99.90;;;;;;5092262;28;20187;-70
2023/07/22 13:02:38;;;;;;;17.93;11.43;;;7.50;99.90;;;;;;5078494;28;20247;-70
2023/07/22 13:05:06;;;;;;;21.17;11.73;;;7.50;99.90;;;;;;5093045;28;20194;-72
2023/07/22 13:07:34;;;;;;;16.37;10.50;;;7.40;99.90;;;;;;5092545;28;20221;-71
2023/07/22 13:10:06;;;;;;;19.13;11.23;;;7.50;99.90;;;;;;5092534;28;20296;-72
2023/07/22 13:12:34;;;;;;;16.77;11.03;;;7.40;99.90;;;;;;5092195;28;20562;-71
2023/07/22 13:15:02;;;;;;;15.27;9.90;;;7.40;99.90;;;;;;5092678;28;20187;-70
2023/07/22 13:17:30;;;;;;;18.70;11.83;;;7.40;99.90;;;;;;5092741;28;20202;-71
2023/07/22 13:19:58;;;;;;;19.87;12.27;;;7.40;99.90;;;;;;5092252;28;20182;-71
2023/07/22 13:22:26;;;;;;;18.87;10.20;;;7.30;99.90;;;;;;5092797;28;20246;-71
2023/07/22 13:24:53;;;;;;;19.30;11.10;;;7.20;99.90;;;;;;5092153;28;20269;-71
2023/07/22 13:27:21;;;;;;;16.87;10.73;;;7.20;99.90;;;;;;5092168;28;20185;-71
2023/07/22 13:29:49;;;;;;;17.00;10.00;;;7.20;99.90;;;;;;5092539;28;20175;-71
2023/07/22 13:32:17;;;;;;;16.53;10.07;;;7.20;99.90;;;;;;5092320;28;20183;-71
2023/07/22 13:34:44;;;;;;;15.47;9.80;;;7.20;99.90;;;;;;5074550;28;20537;-71
2023/07/22 13:37:12;;;;;;;19.90;10.37;;;7.10;99.90;;;;;;5073632;28;20584;-69
2023/07/22 13:39:40;;;;;;;19.13;10.80;;;7.10;99.90;;;;;;5092294;28;20214;-71
2023/07/22 13:42:08;;;;;;;16.17;10.67;;;7.10;99.90;;;;;;5092161;28;20606;-71